Time;durP1;ratioP1;P1;durP2;ratioP2;P2;SDS_P1;SDS_P2;PMS_P1;PMS_P2;Temp;Humidity;BMP_temperature;BMP_pressure;BME280_temperature;BME280_humidity;BME280_pressure;Samples;Min_cycle;Max_cycle;Signal;HPM_P1;HPM_P2
2024/04/08 00:00:42;;;;;;;2.03;1.30;;;16.00;100.00;;;;;;5480835;26;20006;-70
2024/04/08 00:03:09;;;;;;;3.80;1.00;;;16.00;100.00;;;;;;5478853;26;19998;-70
2024/04/08 00:05:36;;;;;;;4.07;1.20;;;15.90;100.00;;;;;;5474815;26;20002;-70
2024/04/08 00:08:04;;;;;;;10.02;1.67;;;16.00;100.00;;;;;;5498904;25;20087;-70
2024/04/08 00:10:31;;;;;;;5.72;1.38;;;15.90;100.00;;;;;;5478878;26;20729;-70
2024/04/08 00:12:58;;;;;;;4.78;1.20;;;15.70;100.00;;;;;;5492300;25;20347;-70
2024/04/08 00:15:25;;;;;;;2.38;0.93;;;15.60;100.00;;;;;;5449171;26;20010;-70
2024/04/08 00:17:52;;;;;;;3.08;1.15;;;15.40;100.00;;;;;;5476037;26;20005;-70
2024/04/08 00:20:19;;;;;;;6.32;1.42;;;15.20;100.00;;;;;;5472477;26;20007;-70
2024/04/08 00:22:51;;;;;;;7.53;1.48;;;14.90;100.00;;;;;;5431121;26;20005;-70
2024/04/08 00:25:18;;;;;;;2.42;1.00;;;14.70;100.00;;;;;;5483294;26;20013;-69
2024/04/08 00:27:45;;;;;;;3.75;1.25;;;14.40;100.00;;;;;;5472318;26;20724;-69
2024/04/08 00:30:12;;;;;;;6.43;1.20;;;14.20;100.00;;;;;;5476962;26;19999;-69
2024/04/08 00:32:39;;;;;;;8.02;1.58;;;14.00;100.00;;;;;;5444797;26;20009;-69
2024/04/08 00:35:06;;;;;;;8.30;1.90;;;13.90;100.00;;;;;;5487375;26;20010;-70
2024/04/08 00:37:33;;;;;;;8.27;1.85;;;13.70;100.00;;;;;;5447258;26;20001;-70
2024/04/08 00:40:00;;;;;;;7.88;1.65;;;13.60;100.00;;;;;;5492058;26;19998;-70
2024/04/08 00:42:27;;;;;;;5.45;2.22;;;13.50;100.00;;;;;;5489400;26;19996;-70
2024/04/08 00:44:54;;;;;;;10.00;2.15;;;13.40;100.00;;;;;;5487689;26;20893;-69
2024/04/08 00:47:21;;;;;;;6.55;1.90;;;13.30;100.00;;;;;;5478259;26;20006;-69
2024/04/08 00:49:49;;;;;;;5.53;1.80;;;13.20;100.00;;;;;;5479457;26;20002;-69
2024/04/08 00:52:16;;;;;;;12.15;2.10;;;13.10;100.00;;;;;;5475812;26;20510;-70
2024/04/08 00:54:43;;;;;;;8.32;2.35;;;13.10;100.00;;;;;;5485539;26;20002;-70
2024/04/08 00:57:13;;;;;;;9.13;2.33;;;13.00;100.00;;;;;;5495708;26;19998;-69
2024/04/08 00:59:41;;;;;;;4.50;1.55;;;13.00;100.00;;;;;;5450846;26;20002;-70
2024/04/08 01:02:08;;;;;;;13.65;2.00;;;12.90;100.00;;;;;;5488713;26;20077;-70
2024/04/08 01:04:35;;;;;;;8.85;1.95;;;12.90;100.00;;;;;;5474339;26;20010;-70
2024/04/08 01:07:02;;;;;;;7.35;2.00;;;12.80;100.00;;;;;;5472802;26;20002;-70
2024/04/08 01:09:29;;;;;;;10.10;1.90;;;12.80;100.00;;;;;;5473589;26;20079;-70
2024/04/08 01:11:57;;;;;;;5.10;1.80;;;12.80;100.00;;;;;;5446681;26;20017;-70
2024/04/08 01:14:24;;;;;;;4.70;1.70;;;12.80;100.00;;;;;;5475438;26;20863;-70
2024/04/08 01:16:51;;;;;;;3.28;1.83;;;12.70;100.00;;;;;;5444313;26;20002;-70
2024/04/08 01:19:22;;;;;;;6.50;2.10;;;12.70;100.00;;;;;;5473907;26;20017;-70
2024/04/08 01:21:50;;;;;;;5.07;1.83;;;12.70;100.00;;;;;;5478431;26;20077;-70
2024/04/08 01:24:17;;;;;;;5.95;2.00;;;12.70;100.00;;;;;;5479927;26;20010;-70
2024/04/08 01:26:45;;;;;;;6.18;2.10;;;12.60;100.00;;;;;;5474746;26;20013;-70
2024/04/08 01:29:12;;;;;;;3.63;1.80;;;12.60;100.00;;;;;;5474602;26;20013;-70
2024/04/08 01:31:38;;;;;;;7.03;2.33;;;12.60;100.00;;;;;;5446743;26;20527;-70
2024/04/08 01:34:06;;;;;;;10.73;2.22;;;12.60;100.00;;;;;;5474898;26;19998;-70
2024/04/08 01:36:33;;;;;;;6.63;2.13;;;12.60;100.00;;;;;;5481910;26;20016;-70
2024/04/08 01:38:59;;;;;;;5.60;1.70;;;12.60;100.00;;;;;;5468798;26;20092;-70
2024/04/08 01:41:27;;;;;;;7.97;2.10;;;12.60;100.00;;;;;;5504207;26;20002;-70
2024/04/08 01:43:57;;;;;;;3.75;1.83;;;12.60;100.00;;;;;;5446971;26;20846;-70
2024/04/08 01:46:24;;;;;;;10.57;2.33;;;12.50;100.00;;;;;;5444948;26;20335;-70
2024/04/08 01:48:50;;;;;;;7.65;2.50;;;12.50;100.00;;;;;;5475568;26;20308;-70
2024/04/08 01:51:17;;;;;;;10.93;2.45;;;12.50;100.00;;;;;;5452482;26;20002;-70
2024/04/08 01:53:44;;;;;;;12.35;2.90;;;12.50;100.00;;;;;;5441662;26;19995;-70
2024/04/08 01:56:11;;;;;;;6.68;2.17;;;12.50;100.00;;;;;;5476818;26;20420;-70
2024/04/08 01:58:38;;;;;;;6.07;2.30;;;12.50;100.00;;;;;;5453215;26;20055;-70
2024/04/08 02:01:05;;;;;;;6.15;2.20;;;12.50;100.00;;;;;;5468542;26;20796;-70
2024/04/08 02:03:32;;;;;;;7.65;2.15;;;12.40;100.00;;;;;;5447924;26;20565;-70
2024/04/08 02:05:59;;;;;;;7.32;2.35;;;12.50;100.00;;;;;;5446319;26;19994;-70
2024/04/08 02:08:25;;;;;;;9.75;2.22;;;12.50;100.00;;;;;;5462758;26;20001;-70
2024/04/08 02:10:52;;;;;;;6.10;2.47;;;12.50;100.00;;;;;;5478098;26;19998;-70
2024/04/08 02:13:19;;;;;;;8.60;2.40;;;12.50;100.00;;;;;;5454162;26;20789;-70
2024/04/08 02:15:46;;;;;;;10.38;2.47;;;12.50;100.00;;;;;;5437972;26;19994;-70
2024/04/08 02:18:13;;;;;;;6.88;2.00;;;12.50;100.00;;;;;;5478345;26;19999;-70
2024/04/08 02:20:41;;;;;;;6.15;2.42;;;12.50;100.00;;;;;;5471777;26;19994;-70
2024/04/08 02:23:08;;;;;;;7.65;2.30;;;12.60;100.00;;;;;;5498041;25;20018;-70
2024/04/08 02:25:44;;;;;;;11.02;2.72;;;12.60;100.00;;;;;;5479951;26;20096;-69
2024/04/08 02:28:11;;;;;;;6.90;2.25;;;12.50;100.00;;;;;;5485788;26;20001;-70
2024/04/08 02:30:39;;;;;;;6.93;2.75;;;12.60;100.00;;;;;;5479852;26;20014;-70
2024/04/08 02:33:06;;;;;;;8.55;2.53;;;12.50;100.00;;;;;;5476771;26;20010;-70
2024/04/08 02:35:37;;;;;;;6.85;2.50;;;12.50;100.00;;;;;;5483703;25;20343;-70
2024/04/08 02:38:05;;;;;;;7.97;2.25;;;12.50;100.00;;;;;;5460120;26;20002;-70
2024/04/08 02:40:32;;;;;;;7.47;2.22;;;12.50;100.00;;;;;;5486210;26;20016;-70
2024/04/08 02:43:00;;;;;;;6.72;2.55;;;12.50;100.00;;;;;;5446884;26;20890;-70
2024/04/08 02:45:26;;;;;;;4.65;2.40;;;12.50;100.00;;;;;;5476773;26;20002;-70
2024/04/08 02:47:53;;;;;;;6.07;2.70;;;12.50;100.00;;;;;;5482172;26;20014;-70
2024/04/08 02:50:21;;;;;;;13.35;2.85;;;12.50;100.00;;;;;;5493191;26;20001;-70
2024/04/08 02:52:48;;;;;;;7.45;2.70;;;12.50;100.00;;;;;;5437896;26;20015;-70
2024/04/08 02:55:15;;;;;;;5.45;2.50;;;12.50;100.00;;;;;;5484006;26;20010;-70
2024/04/08 02:57:42;;;;;;;8.05;2.53;;;12.50;100.00;;;;;;5487811;26;20009;-70
2024/04/08 03:00:11;;;;;;;11.73;2.67;;;12.60;100.00;;;;;;5496659;26;20016;-70
2024/04/08 03:02:37;;;;;;;9.23;3.42;;;12.50;100.00;;;;;;5478461;26;20750;-70
2024/04/08 03:05:04;;;;;;;4.55;2.25;;;12.60;100.00;;;;;;5488207;25;20006;-70
2024/04/08 03:07:31;;;;;;;6.22;2.95;;;12.60;100.00;;;;;;5477794;26;20014;-70
2024/04/08 03:09:58;;;;;;;7.93;3.00;;;12.60;100.00;;;;;;5476909;26;20029;-70
2024/04/08 03:12:25;;;;;;;9.65;3.22;;;12.60;100.00;;;;;;5481338;26;20541;-70
2024/04/08 03:14:52;;;;;;;6.70;3.15;;;12.60;100.00;;;;;;5478268;26;20009;-70
2024/04/08 03:17:19;;;;;;;7.97;2.97;;;12.60;100.00;;;;;;5478116;26;20010;-70
2024/04/08 03:19:46;;;;;;;11.95;3.13;;;12.60;100.00;;;;;;5482587;26;19994;-70
2024/04/08 03:22:13;;;;;;;9.82;3.08;;;12.60;100.00;;;;;;5465833;26;20006;-70
2024/04/08 03:24:40;;;;;;;11.05;3.03;;;12.60;100.00;;;;;;5476224;26;20074;-69
2024/04/08 03:27:07;;;;;;;9.07;3.53;;;12.60;100.00;;;;;;5476262;26;20375;-70
2024/04/08 03:29:34;;;;;;;8.23;2.78;;;12.50;100.00;;;;;;5468661;26;20067;-70
2024/04/08 03:32:01;;;;;;;8.05;2.97;;;12.50;100.00;;;;;;5488632;26;20013;-70
2024/04/08 03:34:28;;;;;;;8.50;2.90;;;12.50;100.00;;;;;;5487286;26;20663;-70
2024/04/08 03:36:55;;;;;;;11.43;2.60;;;12.50;100.00;;;;;;5456045;26;19997;-69
2024/04/08 03:39:21;;;;;;;6.07;2.85;;;12.40;100.00;;;;;;5477632;26;20021;-70
2024/04/08 03:41:50;;;;;;;10.68;2.80;;;12.40;100.00;;;;;;5489450;26;19998;-70
2024/04/08 03:44:17;;;;;;;5.75;2.85;;;12.40;100.00;;;;;;5482577;26;20006;-70
2024/04/08 03:46:44;;;;;;;11.05;2.75;;;12.40;100.00;;;;;;5453822;26;20080;-70
2024/04/08 03:49:11;;;;;;;14.52;3.65;;;12.40;100.00;;;;;;5475311;26;20006;-69
2024/04/08 03:51:40;;;;;;;7.47;3.08;;;12.30;100.00;;;;;;5477748;26;20010;-69
2024/04/08 03:54:07;;;;;;;8.60;2.92;;;12.30;100.00;;;;;;5481779;26;20462;-69
2024/04/08 03:56:33;;;;;;;9.38;2.63;;;12.30;100.00;;;;;;5468993;26;20012;-69
2024/04/08 03:59:00;;;;;;;11.13;3.20;;;12.30;100.00;;;;;;5449464;26;19998;-69
2024/04/08 04:01:27;;;;;;;6.30;2.88;;;12.30;100.00;;;;;;5479307;26;20006;-69
2024/04/08 04:03:54;;;;;;;15.27;3.00;;;12.30;100.00;;;;;;5475598;26;20002;-69
2024/04/08 04:06:21;;;;;;;7.50;2.92;;;12.30;100.00;;;;;;5464613;26;20011;-69
2024/04/08 04:08:48;;;;;;;9.02;2.90;;;12.30;100.00;;;;;;5471779;26;20002;-69
2024/04/08 04:11:15;;;;;;;6.82;2.97;;;12.30;100.00;;;;;;5476442;26;20580;-69
2024/04/08 04:13:42;;;;;;;7.65;3.20;;;12.30;100.00;;;;;;5478236;26;20012;-69
2024/04/08 04:16:09;;;;;;;10.77;3.47;;;12.30;100.00;;;;;;5479350;26;19998;-70
2024/04/08 04:18:37;;;;;;;11.10;3.47;;;12.30;100.00;;;;;;5483151;26;20013;-70
2024/04/08 04:21:04;;;;;;;9.60;3.58;;;12.30;100.00;;;;;;5490074;26;20079;-69
2024/04/08 04:23:31;;;;;;;14.88;3.47;;;12.30;100.00;;;;;;5446548;26;20001;-69
2024/04/08 04:25:59;;;;;;;12.50;4.10;;;12.30;100.00;;;;;;5484423;26;20009;-69
2024/04/08 04:28:26;;;;;;;9.57;3.45;;;12.30;100.00;;;;;;5481979;26;20082;-69
2024/04/08 04:30:55;;;;;;;10.38;3.80;;;12.30;100.00;;;;;;5482135;26;20496;-69
2024/04/08 04:33:22;;;;;;;15.90;3.47;;;12.30;100.00;;;;;;5448192;26;20017;-69
2024/04/08 04:35:59;;;;;;;5.78;2.92;;;12.20;100.00;;;;;;5470790;26;20013;-70
2024/04/08 04:38:26;;;;;;;13.85;3.70;;;12.20;100.00;;;;;;5442269;26;19998;-69
2024/04/08 04:41:04;;;;;;;10.93;3.80;;;12.20;100.00;;;;;;5445687;26;20652;-69
2024/04/08 04:43:32;;;;;;;12.85;3.88;;;12.20;100.00;;;;;;5471143;26;20006;-69
2024/04/08 04:45:59;;;;;;;9.98;3.20;;;12.20;100.00;;;;;;5478725;26;20677;-69
2024/04/08 04:48:27;;;;;;;9.95;3.88;;;12.20;100.00;;;;;;5478148;26;20498;-70
2024/04/08 04:50:54;;;;;;;15.35;3.67;;;12.20;100.00;;;;;;5472221;26;20028;-76
2024/04/08 04:53:21;;;;;;;7.05;3.17;;;12.10;100.00;;;;;;5469948;26;20012;-70
2024/04/08 04:55:54;;;;;;;10.60;4.43;;;12.20;100.00;;;;;;5471543;26;20410;-68
2024/04/08 04:58:21;;;;;;;12.27;3.92;;;12.10;100.00;;;;;;5492682;26;20003;-74
2024/04/08 05:00:49;;;;;;;10.15;3.72;;;12.20;100.00;;;;;;5483915;26;20071;-69
2024/04/08 05:03:20;;;;;;;12.80;3.28;;;12.20;100.00;;;;;;5438321;26;20002;-72
2024/04/08 05:05:56;;;;;;;7.05;3.60;;;12.20;100.00;;;;;;5474433;26;19994;-70
2024/04/08 05:08:24;;;;;;;10.60;3.65;;;12.20;100.00;;;;;;5481699;25;20040;-73
2024/04/08 05:10:51;;;;;;;8.25;3.13;;;12.10;100.00;;;;;;5482275;26;20002;-72
2024/04/08 05:13:19;;;;;;;19.60;12.98;;;12.20;100.00;;;;;;5443324;26;19998;-71
2024/04/08 05:15:56;;;;;;;14.40;4.95;;;12.20;100.00;;;;;;5471561;26;20531;-72
2024/04/08 05:18:23;;;;;;;12.75;5.38;;;12.20;100.00;;;;;;5486316;26;19998;-71
2024/04/08 05:20:51;;;;;;;11.38;4.07;;;12.20;100.00;;;;;;5470837;26;20046;-69
2024/04/08 05:23:21;;;;;;;13.70;4.72;;;12.20;100.00;;;;;;5442770;26;20026;-74
2024/04/08 05:25:48;;;;;;;12.35;4.88;;;12.30;100.00;;;;;;5470417;26;20009;-73
2024/04/08 05:28:16;;;;;;;17.10;4.95;;;12.30;100.00;;;;;;5443121;26;20017;-69
2024/04/08 05:30:43;;;;;;;15.50;5.00;;;12.30;100.00;;;;;;5483950;26;20073;-71
2024/04/08 05:33:10;;;;;;;13.93;4.93;;;12.40;100.00;;;;;;5479301;26;20013;-71
2024/04/08 05:35:40;;;;;;;13.25;6.03;;;12.40;100.00;;;;;;5479850;26;20013;-70
2024/04/08 05:38:08;;;;;;;15.75;6.07;;;12.40;100.00;;;;;;5493791;25;19998;-70
2024/04/08 05:40:38;;;;;;;13.77;7.40;;;12.50;100.00;;;;;;5479718;26;19995;-69
2024/04/08 05:43:06;;;;;;;19.60;6.63;;;12.50;100.00;;;;;;5482157;26;20013;-72
2024/04/08 05:45:33;;;;;;;13.05;5.30;;;12.50;100.00;;;;;;5477467;26;20022;-71
2024/04/08 05:48:01;;;;;;;12.70;4.93;;;12.60;100.00;;;;;;5490655;26;20454;-70
2024/04/08 05:50:28;;;;;;;11.52;4.95;;;12.60;100.00;;;;;;5479730;26;20181;-71
2024/04/08 05:52:55;;;;;;;8.65;4.22;;;12.70;100.00;;;;;;5487691;26;20014;-71
2024/04/08 05:55:22;;;;;;;23.13;6.80;;;12.70;100.00;;;;;;5490895;26;19994;-70
2024/04/08 05:57:49;;;;;;;14.18;4.47;;;12.70;100.00;;;;;;5468182;26;20003;-70
2024/04/08 06:00:18;;;;;;;18.00;6.40;;;12.70;100.00;;;;;;5477794;26;20013;-71
2024/04/08 06:02:50;;;;;;;16.90;5.28;;;12.80;100.00;;;;;;5423701;26;20540;-70
2024/04/08 06:05:22;;;;;;;11.65;4.28;;;12.80;100.00;;;;;;5478201;26;20002;-70
2024/04/08 06:07:49;;;;;;;10.07;4.68;;;12.80;100.00;;;;;;5477298;26;20014;-71
2024/04/08 06:10:17;;;;;;;13.20;4.60;;;12.90;100.00;;;;;;5488239;26;20017;-70
2024/04/08 06:12:44;;;;;;;13.15;4.07;;;12.90;100.00;;;;;;5486681;26;20070;-71
2024/04/08 06:15:15;;;;;;;12.18;4.75;;;12.90;100.00;;;;;;5484556;26;20351;-71
2024/04/08 06:17:42;;;;;;;16.48;5.30;;;12.90;100.00;;;;;;5477603;26;20012;-71
2024/04/08 06:20:10;;;;;;;16.55;4.63;;;12.80;100.00;;;;;;5453186;26;20013;-71
2024/04/08 06:22:37;;;;;;;12.57;4.75;;;12.80;100.00;;;;;;5463470;26;20010;-71
2024/04/08 06:25:06;;;;;;;17.05;5.00;;;12.90;100.00;;;;;;5477574;26;20010;-71
2024/04/08 06:27:33;;;;;;;12.18;4.63;;;12.90;100.00;;;;;;5445936;26;20347;-71
2024/04/08 06:30:01;;;;;;;14.70;5.75;;;12.90;100.00;;;;;;5483101;26;20486;-71
2024/04/08 06:32:28;;;;;;;11.50;5.18;;;13.00;100.00;;;;;;5459569;26;20006;-71
2024/04/08 06:34:55;;;;;;;10.15;4.78;;;13.10;100.00;;;;;;5476584;26;20018;-71
2024/04/08 06:37:22;;;;;;;11.20;5.00;;;13.10;100.00;;;;;;5471668;26;19994;-71
2024/04/08 06:39:49;;;;;;;11.85;5.07;;;13.10;100.00;;;;;;5476904;26;20074;-71
2024/04/08 06:42:17;;;;;;;13.63;5.00;;;13.10;100.00;;;;;;5445420;26;20010;-71
2024/04/08 06:44:51;;;;;;;11.90;5.03;;;13.10;100.00;;;;;;5486079;26;20896;-72
2024/04/08 06:47:19;;;;;;;14.20;5.00;;;13.20;100.00;;;;;;5485723;26;19998;-72
2024/04/08 06:49:47;;;;;;;11.27;4.75;;;13.20;100.00;;;;;;5477982;26;20331;-72
2024/04/08 06:52:15;;;;;;;16.48;4.63;;;13.20;100.00;;;;;;5489684;26;19998;-72
2024/04/08 06:54:43;;;;;;;15.73;4.65;;;13.20;100.00;;;;;;5477145;26;20006;-72
2024/04/08 06:57:10;;;;;;;10.38;4.57;;;13.20;100.00;;;;;;5476977;26;19994;-72
2024/04/08 06:59:37;;;;;;;10.10;4.70;;;13.20;100.00;;;;;;5444830;26;20388;-72
2024/04/08 07:02:05;;;;;;;12.05;4.60;;;13.20;100.00;;;;;;5433735;26;20078;-72
2024/04/08 07:04:32;;;;;;;12.15;4.82;;;13.10;100.00;;;;;;5447449;26;20046;-72
2024/04/08 07:07:00;;;;;;;12.80;4.28;;;13.10;100.00;;;;;;5452932;26;19998;-72
2024/04/08 07:09:29;;;;;;;13.85;3.88;;;13.10;100.00;;;;;;5477006;26;19998;-72
2024/04/08 07:11:59;;;;;;;13.43;4.93;;;13.10;100.00;;;;;;5476782;26;20017;-72
2024/04/08 07:14:28;;;;;;;9.35;4.65;;;13.20;100.00;;;;;;5474319;26;20014;-72
2024/04/08 07:16:55;;;;;;;8.68;4.70;;;13.30;100.00;;;;;;5477240;26;20002;-72
2024/04/08 07:19:22;;;;;;;12.07;5.00;;;13.40;100.00;;;;;;5445264;26;20072;-72
2024/04/08 07:21:49;;;;;;;11.38;4.22;;;13.50;100.00;;;;;;5477169;26;20539;-72
2024/04/08 07:24:19;;;;;;;8.93;4.20;;;13.50;100.00;;;;;;5475820;26;20005;-72
2024/04/08 07:26:47;;;;;;;10.52;4.13;;;13.50;100.00;;;;;;5476946;26;20052;-72
2024/04/08 07:29:15;;;;;;;10.95;4.65;;;13.50;100.00;;;;;;5476614;26;19998;-72
2024/04/08 07:31:42;;;;;;;9.43;4.03;;;13.60;100.00;;;;;;5485664;26;20078;-72
2024/04/08 07:34:09;;;;;;;8.60;3.85;;;13.70;100.00;;;;;;5449789;26;20021;-72
2024/04/08 07:36:35;;;;;;;10.05;4.15;;;14.00;100.00;;;;;;5475319;26;20002;-72
2024/04/08 07:39:03;;;;;;;7.90;3.70;;;14.40;100.00;;;;;;5497169;25;19998;-72
2024/04/08 07:41:30;;;;;;;7.97;3.55;;;14.90;100.00;;;;;;5479297;26;20002;-72
2024/04/08 07:43:57;;;;;;;11.35;3.33;;;15.30;100.00;;;;;;5484696;26;20012;-73
2024/04/08 07:46:24;;;;;;;7.72;3.17;;;15.60;100.00;;;;;;5477202;26;20447;-73
2024/04/08 07:48:51;;;;;;;6.95;3.00;;;16.00;100.00;;;;;;5444361;26;19994;-73
2024/04/08 07:51:18;;;;;;;7.35;2.53;;;16.20;100.00;;;;;;5449653;26;20951;-73
2024/04/08 07:53:45;;;;;;;7.53;2.35;;;16.40;100.00;;;;;;5451593;26;20029;-73
2024/04/08 07:56:12;;;;;;;9.35;2.15;;;16.50;100.00;;;;;;5446177;26;20067;-73
2024/04/08 07:58:39;;;;;;;4.95;1.58;;;16.40;100.00;;;;;;5474512;26;20012;-73
2024/04/08 08:01:07;;;;;;;2.63;1.70;;;16.40;100.00;;;;;;5480897;26;20010;-73
2024/04/08 08:03:35;;;;;;;8.20;2.22;;;16.70;100.00;;;;;;5475570;26;20037;-73
2024/04/08 08:06:02;;;;;;;3.53;1.85;;;17.00;100.00;;;;;;5443961;26;20009;-73
2024/04/08 08:08:33;;;;;;;7.13;1.80;;;17.10;100.00;;;;;;5477372;26;20767;-73
2024/04/08 08:11:04;;;;;;;7.07;1.77;;;17.20;100.00;;;;;;5475980;26;20010;-73
2024/04/08 08:13:32;;;;;;;6.18;1.85;;;17.40;100.00;;;;;;5466160;26;20021;-73
2024/04/08 08:15:59;;;;;;;7.72;1.48;;;17.70;100.00;;;;;;5474845;26;20003;-73
2024/04/08 08:18:27;;;;;;;6.68;1.73;;;18.00;100.00;;;;;;5443810;26;20009;-73
2024/04/08 08:20:55;;;;;;;3.03;1.15;;;18.20;100.00;;;;;;5477345;26;20013;-73
2024/04/08 08:23:22;;;;;;;4.97;1.25;;;18.20;100.00;;;;;;5476446;26;20026;-73
2024/04/08 08:25:49;;;;;;;8.23;1.83;;;18.50;100.00;;;;;;5484921;26;20002;-70
2024/04/08 08:28:16;;;;;;;3.63;1.42;;;18.50;100.00;;;;;;5479574;26;20012;-70
2024/04/08 08:30:42;;;;;;;2.00;1.13;;;18.50;100.00;;;;;;5476361;26;20010;-70
2024/04/08 08:33:10;;;;;;;8.65;1.38;;;18.40;100.00;;;;;;5475574;26;19994;-70
2024/04/08 08:35:37;;;;;;;10.02;1.70;;;18.50;100.00;;;;;;5471560;26;20034;-73
2024/04/08 08:38:04;;;;;;;6.20;2.10;;;18.90;100.00;;;;;;5474231;26;20462;-71
2024/04/08 08:40:32;;;;;;;7.53;1.83;;;19.00;100.00;;;;;;5474561;26;20021;-71
2024/04/08 08:42:59;;;;;;;4.93;1.85;;;19.30;100.00;;;;;;5472578;26;20002;-71
2024/04/08 08:45:27;;;;;;;8.25;1.73;;;19.60;100.00;;;;;;5461920;26;20153;-71
2024/04/08 08:47:55;;;;;;;11.00;2.03;;;20.00;100.00;;;;;;5443596;26;20056;-71
2024/04/08 08:50:25;;;;;;;9.02;2.17;;;20.30;100.00;;;;;;5484662;26;19998;-71
2024/04/08 08:52:53;;;;;;;3.10;1.13;;;20.50;100.00;;;;;;5488771;26;20106;-71
2024/04/08 08:55:21;;;;;;;6.00;1.55;;;20.70;100.00;;;;;;5474487;26;19998;-71
2024/04/08 08:57:49;;;;;;;6.68;1.10;;;20.70;100.00;;;;;;5444653;26;19998;-71
2024/04/08 09:00:16;;;;;;;8.65;1.55;;;20.80;100.00;;;;;;5474144;26;20002;-71
2024/04/08 09:02:45;;;;;;;3.67;1.08;;;20.90;100.00;;;;;;5475286;26;20010;-72
2024/04/08 09:05:12;;;;;;;5.30;1.08;;;21.20;100.00;;;;;;5474737;26;20005;-72
2024/04/08 09:07:39;;;;;;;10.73;1.73;;;21.40;100.00;;;;;;5446935;26;20367;-71
2024/04/08 09:10:06;;;;;;;9.13;1.20;;;21.40;100.00;;;;;;5473748;26;20460;-72
2024/04/08 09:12:33;;;;;;;7.40;0.95;;;21.60;100.00;;;;;;5443000;26;20535;-71
2024/04/08 09:15:00;;;;;;;1.95;1.30;;;21.30;100.00;;;;;;5443776;26;20006;-71
2024/04/08 09:17:27;;;;;;;5.68;1.40;;;21.50;100.00;;;;;;5473837;26;20343;-72
2024/04/08 09:19:54;;;;;;;4.22;1.10;;;21.80;100.00;;;;;;5475160;26;20033;-72
2024/04/08 09:22:21;;;;;;;5.03;1.30;;;22.20;100.00;;;;;;5473450;26;20013;-72
2024/04/08 09:24:48;;;;;;;9.48;1.40;;;22.20;100.00;;;;;;5474123;26;20005;-71
2024/04/08 09:27:15;;;;;;;2.55;1.10;;;22.50;100.00;;;;;;5473938;26;20076;-71
2024/04/08 09:29:43;;;;;;;8.07;1.50;;;22.40;100.00;;;;;;5474338;26;20013;-72
2024/04/08 09:32:10;;;;;;;3.92;1.20;;;22.10;100.00;;;;;;5474531;26;20107;-72
2024/04/08 09:34:37;;;;;;;9.27;1.70;;;22.20;100.00;;;;;;5479153;26;19998;-72
2024/04/08 09:37:08;;;;;;;8.43;1.85;;;22.60;100.00;;;;;;5473659;26;20017;-72
2024/04/08 09:39:38;;;;;;;9.27;1.75;;;23.00;100.00;;;;;;5442331;26;20013;-72
2024/04/08 09:42:10;;;;;;;5.00;1.55;;;23.10;100.00;;;;;;5449986;26;20009;-72
2024/04/08 09:44:38;;;;;;;9.55;2.10;;;23.10;100.00;;;;;;5443765;26;20006;-72
2024/04/08 09:47:09;;;;;;;13.43;1.40;;;23.60;100.00;;;;;;5446513;26;20013;-72
2024/04/08 09:49:38;;;;;;;7.97;1.40;;;23.70;100.00;;;;;;5443139;26;20014;-72
2024/04/08 09:52:17;;;;;;;9.63;1.55;;;23.60;100.00;;;;;;5474619;26;20087;-72
2024/04/08 09:54:44;;;;;;;5.35;1.45;;;24.10;100.00;;;;;;5448338;26;19995;-72
2024/04/08 09:57:15;;;;;;;5.82;1.40;;;24.20;100.00;;;;;;5443937;26;20462;-72
2024/04/08 09:59:45;;;;;;;7.90;1.58;;;24.30;100.00;;;;;;5460301;26;20042;-72
2024/04/08 10:02:20;;;;;;;4.97;1.73;;;24.70;100.00;;;;;;5476838;26;20075;-72
2024/04/08 10:04:50;;;;;;;;;;;24.50;100.00;;;;;;5472360;26;20017;-72
2024/04/08 10:07:17;;;;;;;5.20;1.23;;;24.60;100.00;;;;;;5473119;26;19931;-72
2024/04/08 10:09:44;;;;;;;10.52;2.38;;;25.10;100.00;;;;;;5472307;26;20827;-72
2024/04/08 10:12:11;;;;;;;5.50;1.35;;;25.40;100.00;;;;;;5445352;26;20002;-72
2024/04/08 10:14:38;;;;;;;8.30;1.60;;;25.70;100.00;;;;;;5479216;26;20506;-73
2024/04/08 10:17:05;;;;;;;4.55;1.60;;;26.10;100.00;;;;;;5473055;26;20014;-72
2024/04/08 10:19:32;;;;;;;13.40;1.55;;;26.40;100.00;;;;;;5472070;26;20021;-72
2024/04/08 10:22:01;;;;;;;8.38;2.10;;;26.20;100.00;;;;;;5474339;26;20014;-72
2024/04/08 10:24:35;;;;;;;5.50;1.67;;;26.70;100.00;;;;;;5477073;26;20070;-72
2024/04/08 10:27:08;;;;;;;15.38;1.75;;;26.60;100.00;;;;;;5439137;26;19998;-72
2024/04/08 10:29:35;;;;;;;17.67;1.90;;;26.30;95.10;;;;;;5477591;26;20032;-72
2024/04/08 10:32:04;;;;;;;9.13;1.52;;;26.70;97.00;;;;;;5445590;26;20095;-72
2024/04/08 10:34:33;;;;;;;5.90;1.48;;;26.80;93.80;;;;;;5482800;26;19998;-72
2024/04/08 10:37:00;;;;;;;8.65;2.15;;;26.70;89.40;;;;;;5485634;26;20013;-72
2024/04/08 10:39:27;;;;;;;9.70;1.92;;;27.10;90.30;;;;;;5475552;26;20079;-72
2024/04/08 10:41:58;;;;;;;9.50;1.65;;;27.50;88.70;;;;;;5476651;26;20442;-72
2024/04/08 10:44:31;;;;;;;11.40;1.70;;;27.60;79.70;;;;;;5478913;26;20002;-72
2024/04/08 10:46:59;;;;;;;9.48;2.00;;;27.60;80.10;;;;;;5485188;26;20013;-72
2024/04/08 10:49:26;;;;;;;7.00;1.70;;;27.30;81.30;;;;;;5476309;26;20021;-72
2024/04/08 10:51:53;;;;;;;7.40;1.35;;;27.60;83.10;;;;;;5465360;26;20006;-72
2024/04/08 10:54:20;;;;;;;7.20;1.35;;;27.50;81.10;;;;;;5476177;26;19998;-72
2024/04/08 10:56:47;;;;;;;6.88;1.60;;;27.50;81.60;;;;;;5444442;26;19998;-72
2024/04/08 10:59:14;;;;;;;15.52;1.52;;;27.80;81.00;;;;;;5475977;26;20075;-72
2024/04/08 11:01:42;;;;;;;10.65;1.80;;;27.90;77.70;;;;;;5466222;26;20006;-72
2024/04/08 11:04:09;;;;;;;7.38;1.40;;;27.70;70.60;;;;;;5476501;26;20021;-72
2024/04/08 11:06:36;;;;;;;10.27;1.77;;;27.50;73.30;;;;;;5476898;26;20052;-72
2024/04/08 11:09:06;;;;;;;8.63;1.80;;;27.60;71.60;;;;;;5476152;26;20009;-72
2024/04/08 11:11:33;;;;;;;6.07;1.52;;;28.00;71.30;;;;;;5444611;26;20017;-72
2024/04/08 11:14:00;;;;;;;16.30;1.58;;;28.30;69.70;;;;;;5442844;26;20019;-72
2024/04/08 11:16:31;;;;;;;10.13;1.58;;;28.40;63.40;;;;;;5475438;26;20028;-72
2024/04/08 11:18:58;;;;;;;6.45;1.58;;;28.30;61.60;;;;;;5475342;26;20010;-72
2024/04/08 11:21:26;;;;;;;14.55;2.30;;;28.40;63.40;;;;;;5476326;26;20005;-72
2024/04/08 11:23:54;;;;;;;12.68;2.10;;;28.00;61.30;;;;;;5476429;26;20018;-72
2024/04/08 11:26:22;;;;;;;9.98;2.13;;;28.20;63.00;;;;;;5450805;26;20488;-72
2024/04/08 11:28:49;;;;;;;6.60;1.67;;;27.80;62.30;;;;;;5488665;26;20017;-72
2024/04/08 11:31:16;;;;;;;14.57;2.17;;;28.50;64.80;;;;;;5475204;26;19995;-72
2024/04/08 11:33:42;;;;;;;12.60;1.88;;;29.10;60.60;;;;;;5481385;26;20397;-72
2024/04/08 11:36:10;;;;;;;13.52;2.35;;;28.10;55.40;;;;;;5476575;26;20094;-72
2024/04/08 11:38:41;;;;;;;14.85;2.03;;;27.50;58.80;;;;;;5476024;26;20002;-72
2024/04/08 11:41:08;;;;;;;8.13;1.50;;;27.90;55.40;;;;;;5476419;26;20085;-72
2024/04/08 11:43:35;;;;;;;3.53;1.40;;;27.30;58.40;;;;;;5447574;26;19999;-72
2024/04/08 11:46:03;;;;;;;14.80;2.58;;;27.60;59.10;;;;;;5475571;26;19998;-72
2024/04/08 11:48:31;;;;;;;24.13;3.35;;;28.00;55.60;;;;;;5443518;26;20002;-72
2024/04/08 11:50:58;;;;;;;12.30;2.22;;;27.80;57.00;;;;;;5449017;26;20070;-72
2024/04/08 11:53:25;;;;;;;10.70;2.10;;;27.60;58.60;;;;;;5444197;26;20417;-72
2024/04/08 11:55:52;;;;;;;14.40;1.85;;;27.40;56.40;;;;;;5477427;26;20006;-72
2024/04/08 11:58:19;;;;;;;19.75;2.10;;;27.50;57.30;;;;;;5476376;26;20523;-72
2024/04/08 12:00:46;;;;;;;10.25;1.77;;;27.90;60.00;;;;;;5471437;26;20033;-72
2024/04/08 12:03:13;;;;;;;12.32;2.85;;;28.30;55.50;;;;;;5486774;26;20013;-71
2024/04/08 12:05:40;;;;;;;10.23;2.08;;;28.50;59.50;;;;;;5470697;26;20009;-72
2024/04/08 12:08:07;;;;;;;10.70;2.20;;;28.80;55.90;;;;;;5445381;26;19998;-72
2024/04/08 12:10:34;;;;;;;30.55;3.15;;;28.80;54.80;;;;;;5488081;26;20013;-72
2024/04/08 12:13:18;;;;;;;21.38;3.13;;;29.10;55.30;;;;;;5450650;26;20070;-72
2024/04/08 12:15:47;;;;;;;23.40;4.32;;;29.40;52.60;;;;;;5459935;26;19998;-72
2024/04/08 12:18:14;;;;;;;13.18;2.13;;;29.40;53.20;;;;;;5475643;26;20475;-72
2024/04/08 12:20:41;;;;;;;13.25;2.35;;;29.40;54.30;;;;;;5481643;26;21027;-72
2024/04/08 12:23:11;;;;;;;11.38;1.90;;;29.40;56.60;;;;;;5474824;26;20002;-71
2024/04/08 12:25:39;;;;;;;8.70;1.85;;;29.50;56.10;;;;;;5473451;26;20806;-72
2024/04/08 12:28:09;;;;;;;15.75;2.25;;;29.20;56.40;;;;;;5450086;26;20006;-72
2024/04/08 12:30:36;;;;;;;21.80;2.33;;;29.20;54.60;;;;;;5477464;26;20009;-75
2024/04/08 12:33:04;;;;;;;10.10;2.13;;;28.30;58.00;;;;;;5475438;26;20051;-69
2024/04/08 12:35:31;;;;;;;31.63;3.63;;;28.80;59.90;;;;;;5473491;26;20069;-70
2024/04/08 12:37:59;;;;;;;12.02;3.05;;;29.80;56.90;;;;;;5458131;26;20006;-69